Agana Heights, GU (96910)

8:01 AM ChST on August 25, 2016 (GMT +1000)
Maite | | Change Station

Elev 140 ft 13.48 °N, 144.76 °E | Updated 22 seconds ago

Clear
Clear
82.0 °F
Feels Like 92 °F
N
0.0
Wind Variable Wind from SSW
Gusts 4.0 mph

Today
High -- | Low -- °F
--% Chance of Precip.
Yesterday
High -- | Low -- °F
Precip. -- in
Pressure 29.81 in
Visibility 10.0 miles
Clouds Clear
Heat Index 92 °F
Dew Point 79 °F
Humidity 91%
Rainfall 0.00 in
Snow Depth Not available.
6:09 AM 6:36 PM
Waning Gibbous, 53% visible
METAR PGUM 242154Z 17006KT 10SM CLR 28/26 A2983 RMK AO2 SLP094 T02830256 $
Pressure 29.81 in
Visibility 10.0 miles
Clouds Clear
Heat Index 92 °F
Dew Point 79 °F
Humidity 91%
Rainfall 0.00 in
Snow Depth Not available.
6:09 AM 6:36 PM
Waning Gibbous, 53% visible
METAR PGUM 242154Z 17006KT 10SM CLR 28/26 A2983 RMK AO2 SLP094 T02830256 $

10-Day Weather Forecast

Almanac

Astronomy

Aug. 25, 2016 Rise Set
Actual Time
Civil Twilight
Nautical Twilight
Astronomical Twilight
Moon
Length of Visible Light
Length of Day
Tomorrow will be .
, % of the Moon is Illuminated

Today's Extremes

State Highs State Lows

Community

WunderPhotos

Upload Photos

1,934,724 photos uploaded!

WunderBlog® & News

Nearby

Air Quality

  Air Quality AQ Index Pollutant
Not available.

Snow Depth

Station Depth Elevation

Earthquake Activity

City Distance Mag. Time & Date
Minimum magnitude displayed is 2.5.

Coastal Water Temperatures

Place Temperature

Stations

Nearby Weather Stations

Station Location Temp. Windchill Dew Point Humidity Wind Precip. Elev Updated Type
                   

Watches & Warnings

There are currently no watches in effect.